sensor_id;sensor_type;location;lat;lon;timestamp;pressure;altitude;pressure_sealevel;temperature;humidity
51123;BME280;37162;41.724;13.346;2023-11-18T00:00:29;96666.88;;;19.49;84.89
51123;BME280;37162;41.724;13.346;2023-11-18T00:02:54;96685.97;;;19.48;84.67
51123;BME280;37162;41.724;13.346;2023-11-18T00:05:20;96699.47;;;19.48;84.74
51123;BME280;37162;41.724;13.346;2023-11-18T00:07:46;96704.84;;;19.48;84.63
51123;BME280;37162;41.724;13.346;2023-11-18T00:10:12;96688.69;;;19.48;84.46
51123;BME280;37162;41.724;13.346;2023-11-18T00:12:37;96674.28;;;19.37;84.37
51123;BME280;37162;41.724;13.346;2023-11-18T00:15:07;96682.19;;;19.44;84.44
51123;BME280;37162;41.724;13.346;2023-11-18T00:17:34;96689.75;;;19.47;84.45
51123;BME280;37162;41.724;13.346;2023-11-18T00:20:00;96675.19;;;19.48;84.62
51123;BME280;37162;41.724;13.346;2023-11-18T00:22:28;96703.81;;;19.49;84.86
51123;BME280;37162;41.724;13.346;2023-11-18T00:24:53;96711.88;;;19.49;84.82
51123;BME280;37162;41.724;13.346;2023-11-18T00:27:20;96703.22;;;19.47;84.55
51123;BME280;37162;41.724;13.346;2023-11-18T00:29:47;96712.69;;;19.49;84.31
51123;BME280;37162;41.724;13.346;2023-11-18T00:32:13;96700.47;;;19.41;84.07
51123;BME280;37162;41.724;13.346;2023-11-18T00:34:38;96708.38;;;19.48;83.88
51123;BME280;37162;41.724;13.346;2023-11-18T00:37:04;96695.72;;;19.49;83.95
51123;BME280;37162;41.724;13.346;2023-11-18T00:39:29;96716.47;;;19.48;83.75
51123;BME280;37162;41.724;13.346;2023-11-18T00:41:55;96710.22;;;19.48;83.88
51123;BME280;37162;41.724;13.346;2023-11-18T00:44:23;96721.00;;;19.48;83.86
51123;BME280;37162;41.724;13.346;2023-11-18T00:46:48;96722.91;;;19.47;83.86
51123;BME280;37162;41.724;13.346;2023-11-18T00:49:14;96735.56;;;19.47;83.75
51123;BME280;37162;41.724;13.346;2023-11-18T00:51:39;96743.63;;;19.47;83.76
51123;BME280;37162;41.724;13.346;2023-11-18T00:54:06;96751.72;;;19.47;83.71
51123;BME280;37162;41.724;13.346;2023-11-18T00:56:32;96730.63;;;19.38;83.62
51123;BME280;37162;41.724;13.346;2023-11-18T00:58:58;96749.03;;;19.47;84.02
51123;BME280;37162;41.724;13.346;2023-11-18T01:01:23;96730.97;;;19.47;84.33
51123;BME280;37162;41.724;13.346;2023-11-18T01:03:49;96747.16;;;19.47;84.46
51123;BME280;37162;41.724;13.346;2023-11-18T01:06:14;96748.81;;;19.48;84.69
51123;BME280;37162;41.724;13.346;2023-11-18T01:08:46;96744.72;;;19.46;84.63
51123;BME280;37162;41.724;13.346;2023-11-18T01:11:16;96743.41;;;19.48;84.58
51123;BME280;37162;41.724;13.346;2023-11-18T01:13:45;96746.00;;;19.43;84.29
51123;BME280;37162;41.724;13.346;2023-11-18T01:16:11;96751.50;;;19.48;84.14
51123;BME280;37162;41.724;13.346;2023-11-18T01:18:36;96740.88;;;19.41;83.95
51123;BME280;37162;41.724;13.346;2023-11-18T01:21:02;96766.25;;;19.46;83.85
51123;BME280;37162;41.724;13.346;2023-11-18T01:23:28;96761.44;;;19.48;83.96
51123;BME280;37162;41.724;13.346;2023-11-18T01:25:53;96772.22;;;19.48;83.88
51123;BME280;37162;41.724;13.346;2023-11-18T01:28:18;96764.97;;;19.48;83.80
51123;BME280;37162;41.724;13.346;2023-11-18T01:30:44;96764.13;;;19.48;83.97
51123;BME280;37162;41.724;13.346;2023-11-18T01:33:10;96772.22;;;19.48;83.82
51123;BME280;37162;41.724;13.346;2023-11-18T01:35:36;96771.41;;;19.47;83.94
51123;BME280;37162;41.724;13.346;2023-11-18T01:38:01;96786.75;;;19.47;83.94
51123;BME280;37162;41.724;13.346;2023-11-18T01:40:27;96774.91;;;19.48;83.93
51123;BME280;37162;41.724;13.346;2023-11-18T01:42:55;96775.16;;;19.46;84.14
51123;BME280;37162;41.724;13.346;2023-11-18T01:45:21;96774.91;;;19.48;84.31
51123;BME280;37162;41.724;13.346;2023-11-18T01:47:46;96776.78;;;19.47;84.43
51123;BME280;37162;41.724;13.346;2023-11-18T01:50:14;96785.69;;;19.48;84.67
51123;BME280;37162;41.724;13.346;2023-11-18T01:52:41;96787.34;;;19.49;84.68
51123;BME280;37162;41.724;13.346;2023-11-18T01:55:07;96785.69;;;19.48;84.73
51123;BME280;37162;41.724;13.346;2023-11-18T01:57:34;96791.91;;;19.48;84.48
51123;BME280;37162;41.724;13.346;2023-11-18T02:00:00;96783.50;;;19.45;84.30
51123;BME280;37162;41.724;13.346;2023-11-18T02:02:30;96784.88;;;19.47;83.92
51123;BME280;37162;41.724;13.346;2023-11-18T02:04:56;96791.06;;;19.48;83.94
51123;BME280;37162;41.724;13.346;2023-11-18T02:07:22;96790.25;;;19.47;83.92
51123;BME280;37162;41.724;13.346;2023-11-18T02:09:47;96784.06;;;19.47;83.85
51123;BME280;37162;41.724;13.346;2023-11-18T02:12:46;96800.22;;;19.47;83.75
51123;BME280;37162;41.724;13.346;2023-11-18T02:15:17;96804.81;;;19.46;83.65
51123;BME280;37162;41.724;13.346;2023-11-18T02:17:44;96807.50;;;19.46;83.84
51123;BME280;37162;41.724;13.346;2023-11-18T02:20:11;96814.75;;;19.46;83.67
51123;BME280;37162;41.724;13.346;2023-11-18T02:22:42;96804.00;;;19.46;83.65
51123;BME280;37162;41.724;13.346;2023-11-18T02:25:09;96815.03;;;19.44;83.65
51123;BME280;37162;41.724;13.346;2023-11-18T02:27:37;96826.63;;;19.45;83.69
51123;BME280;37162;41.724;13.346;2023-11-18T02:30:03;96822.84;;;19.46;83.81
51123;BME280;37162;41.724;13.346;2023-11-18T02:32:35;96802.38;;;19.45;84.15
51123;BME280;37162;41.724;13.346;2023-11-18T02:35:09;96817.47;;;19.46;84.18
51123;BME280;37162;41.724;13.346;2023-11-18T02:37:40;96828.25;;;19.46;84.33
51123;BME280;37162;41.724;13.346;2023-11-18T02:40:11;96824.47;;;19.47;84.40
51123;BME280;37162;41.724;13.346;2023-11-18T02:42:43;96833.63;;;19.46;84.25
51123;BME280;37162;41.724;13.346;2023-11-18T02:45:11;96829.31;;;19.45;84.05
51123;BME280;37162;41.724;13.346;2023-11-18T02:47:43;96830.94;;;19.46;83.77
51123;BME280;37162;41.724;13.346;2023-11-18T02:50:09;96849.78;;;19.46;83.59
51123;BME280;37162;41.724;13.346;2023-11-18T02:52:39;96844.41;;;19.46;83.56
51123;BME280;37162;41.724;13.346;2023-11-18T02:55:06;96845.69;;;19.43;83.46
51123;BME280;37162;41.724;13.346;2023-11-18T02:57:33;96850.59;;;19.46;83.48
51123;BME280;37162;41.724;13.346;2023-11-18T02:59:59;96842.38;;;19.36;83.25
51123;BME280;37162;41.724;13.346;2023-11-18T03:02:28;96860.81;;;19.44;83.29
51123;BME280;37162;41.724;13.346;2023-11-18T03:04:56;96849.25;;;19.44;83.46
51123;BME280;37162;41.724;13.346;2023-11-18T03:07:23;96849.47;;;19.42;83.36
51123;BME280;37162;41.724;13.346;2023-11-18T03:09:48;96861.06;;;19.42;83.31
51123;BME280;37162;41.724;13.346;2023-11-18T03:12:14;96859.44;;;19.41;83.29
51123;BME280;37162;41.724;13.346;2023-11-18T03:14:39;96863.75;;;19.42;83.34
51123;BME280;37162;41.724;13.346;2023-11-18T03:17:05;96865.63;;;19.42;83.45
51123;BME280;37162;41.724;13.346;2023-11-18T03:19:35;96860.41;;;19.35;83.73
51123;BME280;37162;41.724;13.346;2023-11-18T03:22:01;96871.84;;;19.42;83.87
51123;BME280;37162;41.724;13.346;2023-11-18T03:24:27;96879.91;;;19.42;83.85
51123;BME280;37162;41.724;13.346;2023-11-18T03:26:56;96881.56;;;19.44;83.83
51123;BME280;37162;41.724;13.346;2023-11-18T03:29:21;96873.72;;;19.42;83.65
51123;BME280;37162;41.724;13.346;2023-11-18T03:31:48;96873.72;;;19.42;83.53
51123;BME280;37162;41.724;13.346;2023-11-18T03:34:15;96879.09;;;19.42;83.12
51123;BME280;37162;41.724;13.346;2023-11-18T03:36:41;96877.47;;;19.41;83.23
51123;BME280;37162;41.724;13.346;2023-11-18T03:39:06;96881.25;;;19.40;83.01
51123;BME280;37162;41.724;13.346;2023-11-18T03:41:32;96876.31;;;19.37;83.04
51123;BME280;37162;41.724;13.346;2023-11-18T03:43:57;96878.53;;;19.40;82.98
51123;BME280;37162;41.724;13.346;2023-11-18T03:46:23;96888.50;;;19.39;83.10
51123;BME280;37162;41.724;13.346;2023-11-18T03:48:48;96890.38;;;19.39;83.06
51123;BME280;37162;41.724;13.346;2023-11-18T03:51:14;96894.13;;;19.38;83.06
51123;BME280;37162;41.724;13.346;2023-11-18T03:53:42;96893.31;;;19.37;82.81
51123;BME280;37162;41.724;13.346;2023-11-18T03:56:08;96897.88;;;19.37;83.06
51123;BME280;37162;41.724;13.346;2023-11-18T03:58:33;96902.47;;;19.36;82.85
51123;BME280;37162;41.724;13.346;2023-11-18T04:01:00;96891.94;;;19.35;82.68
51123;BME280;37162;41.724;13.346;2023-11-18T04:03:26;96900.84;;;19.35;82.78
51123;BME280;37162;41.724;13.346;2023-11-18T04:05:52;96901.56;;;19.31;82.98
51123;BME280;37162;41.724;13.346;2023-11-18T04:08:17;96907.84;;;19.36;83.06
51123;BME280;37162;41.724;13.346;2023-11-18T04:10:43;96913.22;;;19.36;83.17
51123;BME280;37162;41.724;13.346;2023-11-18T04:13:08;96916.19;;;19.35;83.09
51123;BME280;37162;41.724;13.346;2023-11-18T04:15:34;96923.19;;;19.36;82.96
51123;BME280;37162;41.724;13.346;2023-11-18T04:18:00;96924.25;;;19.35;83.20
51123;BME280;37162;41.724;13.346;2023-11-18T04:20:26;96924.25;;;19.35;83.39
51123;BME280;37162;41.724;13.346;2023-11-18T04:22:51;96928.84;;;19.34;83.54
51123;BME280;37162;41.724;13.346;2023-11-18T04:25:17;96939.03;;;19.32;83.22
51123;BME280;37162;41.724;13.346;2023-11-18T04:27:42;96933.56;;;19.27;82.97
51123;BME280;37162;41.724;13.346;2023-11-18T04:30:08;96935.78;;;19.30;82.90
51123;BME280;37162;41.724;13.346;2023-11-18T04:32:34;96947.03;;;19.27;82.95
51123;BME280;37162;41.724;13.346;2023-11-18T04:35:00;96958.38;;;19.29;82.94
51123;BME280;37162;41.724;13.346;2023-11-18T04:37:33;96961.09;;;19.29;82.81
51123;BME280;37162;41.724;13.346;2023-11-18T04:39:59;96957.53;;;19.29;82.88
51123;BME280;37162;41.724;13.346;2023-11-18T04:42:24;96964.00;;;19.28;82.74
51123;BME280;37162;41.724;13.346;2023-11-18T04:44:50;96965.06;;;19.27;82.65
51123;BME280;37162;41.724;13.346;2023-11-18T04:47:15;96959.13;;;19.25;82.63
51123;BME280;37162;41.724;13.346;2023-11-18T04:49:43;96970.19;;;19.28;82.61
51123;BME280;37162;41.724;13.346;2023-11-18T04:52:09;96975.59;;;19.28;82.94
51123;BME280;37162;41.724;13.346;2023-11-18T04:54:35;96979.09;;;19.29;82.85
51123;BME280;37162;41.724;13.346;2023-11-18T04:57:01;96969.31;;;19.23;82.63
51123;BME280;37162;41.724;13.346;2023-11-18T04:59:26;96983.91;;;19.27;82.94
51123;BME280;37162;41.724;13.346;2023-11-18T05:03:31;96986.38;;;19.28;83.00
51123;BME280;37162;41.724;13.346;2023-11-18T05:05:57;96985.31;;;19.29;83.14
51123;BME280;37162;41.724;13.346;2023-11-18T05:08:23;96985.56;;;19.28;83.02
51123;BME280;37162;41.724;13.346;2023-11-18T05:10:49;96984.47;;;19.29;82.55
51123;BME280;37162;41.724;13.346;2023-11-18T05:14:36;96993.06;;;19.26;81.45
51123;BME280;37162;41.724;13.346;2023-11-18T05:17:02;96981.06;;;19.17;80.19
51123;BME280;37162;41.724;13.346;2023-11-18T05:19:30;96985.47;;;19.23;79.43
51123;BME280;37162;41.724;13.346;2023-11-18T05:21:55;96997.06;;;19.23;78.95
51123;BME280;37162;41.724;13.346;2023-11-18T05:24:20;97000.56;;;19.24;78.84
51123;BME280;37162;41.724;13.346;2023-11-18T05:26:46;96997.06;;;19.23;78.96
51123;BME280;37162;41.724;13.346;2023-11-18T05:29:11;96994.34;;;19.23;79.08
51123;BME280;37162;41.724;13.346;2023-11-18T05:31:41;96995.16;;;19.24;79.57
51123;BME280;37162;41.724;13.346;2023-11-18T05:34:06;96993.19;;;19.19;79.72
51123;BME280;37162;41.724;13.346;2023-11-18T05:36:32;97008.16;;;19.27;80.14
51123;BME280;37162;41.724;13.346;2023-11-18T05:39:02;97010.88;;;19.27;80.23
51123;BME280;37162;41.724;13.346;2023-11-18T05:41:29;97006.28;;;19.27;80.47
51123;BME280;37162;41.724;13.346;2023-11-18T05:43:55;97017.06;;;19.27;80.47
51123;BME280;37162;41.724;13.346;2023-11-18T05:46:23;97008.97;;;19.27;80.33
51123;BME280;37162;41.724;13.346;2023-11-18T05:48:55;97013.56;;;19.27;80.30
51123;BME280;37162;41.724;13.346;2023-11-18T05:51:22;97016.00;;;19.28;80.36
51123;BME280;37162;41.724;13.346;2023-11-18T05:53:48;97019.75;;;19.27;80.30
51123;BME280;37162;41.724;13.346;2023-11-18T05:56:15;97025.16;;;19.27;80.16
51123;BME280;37162;41.724;13.346;2023-11-18T05:58:43;97021.28;;;19.23;80.28
51123;BME280;37162;41.724;13.346;2023-11-18T06:01:09;97031.59;;;19.26;80.44
51123;BME280;37162;41.724;13.346;2023-11-18T06:03:36;97024.59;;;19.25;80.58
51123;BME280;37162;41.724;13.346;2023-11-18T06:06:07;97039.09;;;19.24;80.60
51123;BME280;37162;41.724;13.346;2023-11-18T06:08:34;97036.63;;;19.23;80.70
51123;BME280;37162;41.724;13.346;2023-11-18T06:10:59;97038.28;;;19.24;80.84
51123;BME280;37162;41.724;13.346;2023-11-18T06:13:30;97041.22;;;19.22;80.73
51123;BME280;37162;41.724;13.346;2023-11-18T06:15:56;97051.19;;;19.22;80.84
51123;BME280;37162;41.724;13.346;2023-11-18T06:18:22;97043.25;;;19.15;80.76
51123;BME280;37162;41.724;13.346;2023-11-18T06:20:47;97063.56;;;19.23;81.08
51123;BME280;37162;41.724;13.346;2023-11-18T06:23:13;97060.88;;;19.23;81.36
51123;BME280;37162;41.724;13.346;2023-11-18T06:25:43;97059.00;;;19.23;81.18
51123;BME280;37162;41.724;13.346;2023-11-18T06:28:11;97076.22;;;19.22;81.00
51123;BME280;37162;41.724;13.346;2023-11-18T06:30:36;97082.69;;;19.21;80.76
51123;BME280;37162;41.724;13.346;2023-11-18T06:33:02;97071.91;;;19.21;80.79
51123;BME280;37162;41.724;13.346;2023-11-18T06:35:28;97081.06;;;19.20;80.77
51123;BME280;37162;41.724;13.346;2023-11-18T06:37:54;97079.19;;;19.21;80.84
51123;BME280;37162;41.724;13.346;2023-11-18T06:40:20;97085.38;;;19.21;80.71
51123;BME280;37162;41.724;13.346;2023-11-18T06:42:47;97094.28;;;19.22;80.70
51123;BME280;37162;41.724;13.346;2023-11-18T06:45:13;97083.75;;;19.20;80.76
51123;BME280;37162;41.724;13.346;2023-11-18T06:47:39;97086.44;;;19.20;80.87
51123;BME280;37162;41.724;13.346;2023-11-18T06:50:09;97089.94;;;19.21;80.75
51123;BME280;37162;41.724;13.346;2023-11-18T06:52:37;97095.34;;;19.21;80.67
51123;BME280;37162;41.724;13.346;2023-11-18T06:55:04;97105.84;;;19.22;80.65
51123;BME280;37162;41.724;13.346;2023-11-18T06:57:29;97099.19;;;19.25;80.59
51123;BME280;37162;41.724;13.346;2023-11-18T06:59:55;97094.84;;;19.24;80.64
51123;BME280;37162;41.724;13.346;2023-11-18T07:02:20;97098.69;;;19.28;80.80
51123;BME280;37162;41.724;13.346;2023-11-18T07:04:46;97117.09;;;19.31;80.83
51123;BME280;37162;41.724;13.346;2023-11-18T07:07:11;97106.06;;;19.32;80.78
51123;BME280;37162;41.724;13.346;2023-11-18T07:09:38;97110.38;;;19.33;80.69
51123;BME280;37162;41.724;13.346;2023-11-18T07:12:04;97117.19;;;19.36;80.41
51123;BME280;37162;41.724;13.346;2023-11-18T07:14:30;97112.59;;;19.36;79.95
51123;BME280;37162;41.724;13.346;2023-11-18T07:16:56;97111.44;;;19.32;79.58
51123;BME280;37162;41.724;13.346;2023-11-18T07:19:21;97118.34;;;19.40;79.33
51123;BME280;37162;41.724;13.346;2023-11-18T07:21:47;97122.66;;;19.41;79.29
51123;BME280;37162;41.724;13.346;2023-11-18T07:24:13;97122.19;;;19.44;79.10
51123;BME280;37162;41.724;13.346;2023-11-18T07:26:38;97121.69;;;19.47;79.15
51123;BME280;37162;41.724;13.346;2023-11-18T07:29:04;97123.09;;;19.50;79.02
51123;BME280;37162;41.724;13.346;2023-11-18T07:31:32;97133.41;;;19.53;78.77
51123;BME280;37162;41.724;13.346;2023-11-18T07:33:58;97132.09;;;19.55;78.73
51123;BME280;37162;41.724;13.346;2023-11-18T07:36:23;97143.69;;;19.56;77.27
51123;BME280;37162;41.724;13.346;2023-11-18T07:38:49;97146.41;;;19.56;75.01
51123;BME280;37162;41.724;13.346;2023-11-18T07:41:17;97154.47;;;19.56;71.16
51123;BME280;37162;41.724;13.346;2023-11-18T07:43:52;97156.97;;;19.57;67.34
51123;BME280;37162;41.724;13.346;2023-11-18T07:46:20;97151.78;;;19.56;62.01
51123;BME280;37162;41.724;13.346;2023-11-18T07:48:50;97153.78;;;19.60;60.21
51123;BME280;37162;41.724;13.346;2023-11-18T07:51:18;97160.09;;;19.66;57.99
51123;BME280;37162;41.724;13.346;2023-11-18T07:53:44;97159.38;;;19.71;57.00
51123;BME280;37162;41.724;13.346;2023-11-18T07:56:09;97170.59;;;19.79;56.28
51123;BME280;37162;41.724;13.346;2023-11-18T07:58:37;97168.00;;;19.84;56.27
51123;BME280;37162;41.724;13.346;2023-11-18T08:01:04;97172.19;;;19.92;57.72
51123;BME280;37162;41.724;13.346;2023-11-18T08:03:33;97162.69;;;19.89;58.64
51123;BME280;37162;41.724;13.346;2023-11-18T08:05:58;97159.34;;;19.99;58.24
51123;BME280;37162;41.724;13.346;2023-11-18T08:08:24;97179.97;;;20.05;59.70
51123;BME280;37162;41.724;13.346;2023-11-18T08:10:50;97184.88;;;20.08;60.43
51123;BME280;37162;41.724;13.346;2023-11-18T08:13:16;97183.59;;;20.11;60.95
51123;BME280;37162;41.724;13.346;2023-11-18T08:15:43;97184.75;;;20.15;63.34
51123;BME280;37162;41.724;13.346;2023-11-18T08:18:11;97183.94;;;20.14;64.96
51123;BME280;37162;41.724;13.346;2023-11-18T08:20:37;97193.47;;;20.22;66.71
51123;BME280;37162;41.724;13.346;2023-11-18T08:23:03;97191.50;;;20.17;64.35
51123;BME280;37162;41.724;13.346;2023-11-18T08:25:32;97200.53;;;20.23;66.32
51123;BME280;37162;41.724;13.346;2023-11-18T08:28:06;97199.69;;;20.23;63.78
51123;BME280;37162;41.724;13.346;2023-11-18T08:30:32;97197.00;;;20.23;66.68
51123;BME280;37162;41.724;13.346;2023-11-18T08:32:59;97197.59;;;20.25;67.25
51123;BME280;37162;41.724;13.346;2023-11-18T08:35:24;97204.69;;;20.31;68.27
51123;BME280;37162;41.724;13.346;2023-11-18T08:37:51;97205.28;;;20.33;68.45
51123;BME280;37162;41.724;13.346;2023-11-18T08:40:17;97210.44;;;20.34;68.11
51123;BME280;37162;41.724;13.346;2023-11-18T08:42:53;97209.13;;;20.37;69.66
51123;BME280;37162;41.724;13.346;2023-11-18T08:45:28;97198.00;;;20.33;69.40
51123;BME280;37162;41.724;13.346;2023-11-18T08:48:00;97211.59;;;20.38;69.53
51123;BME280;37162;41.724;13.346;2023-11-18T08:50:33;97214.84;;;20.40;69.46
51123;BME280;37162;41.724;13.346;2023-11-18T08:52:59;97215.44;;;20.42;69.33
51123;BME280;37162;41.724;13.346;2023-11-18T08:55:29;97207.09;;;20.44;69.54
51123;BME280;37162;41.724;13.346;2023-11-18T08:58:18;97210.16;;;20.48;69.92
51123;BME280;37162;41.724;13.346;2023-11-18T09:00:59;97212.84;;;20.48;69.86
51123;BME280;37162;41.724;13.346;2023-11-18T09:03:31;97209.66;;;20.51;69.75
51123;BME280;37162;41.724;13.346;2023-11-18T09:06:04;97204.06;;;20.40;69.80
51123;BME280;37162;41.724;13.346;2023-11-18T09:08:33;97212.94;;;20.53;69.70
51123;BME280;37162;41.724;13.346;2023-11-18T09:11:08;97222.41;;;20.55;70.18
51123;BME280;37162;41.724;13.346;2023-11-18T09:13:36;97222.19;;;20.57;70.17
51123;BME280;37162;41.724;13.346;2023-11-18T09:16:04;97232.72;;;20.58;70.47
51123;BME280;37162;41.724;13.346;2023-11-18T09:18:33;97224.56;;;20.53;70.19
51123;BME280;37162;41.724;13.346;2023-11-18T09:21:03;97228.16;;;20.59;70.56
51123;BME280;37162;41.724;13.346;2023-11-18T09:23:31;97227.66;;;20.62;71.22
51123;BME280;37162;41.724;13.346;2023-11-18T09:26:00;97233.63;;;20.64;71.24
51123;BME280;37162;41.724;13.346;2023-11-18T09:28:27;97229.88;;;20.65;71.16
51123;BME280;37162;41.724;13.346;2023-11-18T09:30:56;97216.63;;;20.63;71.35
51123;BME280;37162;41.724;13.346;2023-11-18T09:33:26;97209.41;;;20.69;71.65
51123;BME280;37162;41.724;13.346;2023-11-18T09:35:57;97208.84;;;20.67;72.09
51123;BME280;37162;41.724;13.346;2023-11-18T09:38:26;97211.63;;;20.72;72.16
51123;BME280;37162;41.724;13.346;2023-11-18T09:40:56;97209.50;;;20.74;72.39
51123;BME280;37162;41.724;13.346;2023-11-18T09:43:24;97215.16;;;20.73;73.06
51123;BME280;37162;41.724;13.346;2023-11-18T09:45:54;97216.28;;;20.77;73.53
51123;BME280;37162;41.724;13.346;2023-11-18T09:48:20;97221.44;;;20.78;73.91
51123;BME280;37162;41.724;13.346;2023-11-18T09:50:51;97207.53;;;20.70;62.84
51123;BME280;37162;41.724;13.346;2023-11-18T09:53:17;97207.59;;;20.75;67.83
51123;BME280;37162;41.724;13.346;2023-11-18T09:56:02;97197.41;;;20.77;70.67
51123;BME280;37162;41.724;13.346;2023-11-18T09:58:45;97214.56;;;20.87;71.77
51123;BME280;37162;41.724;13.346;2023-11-18T10:01:15;97204.28;;;20.84;72.19
51123;BME280;37162;41.724;13.346;2023-11-18T10:03:44;97215.44;;;20.93;72.58
51123;BME280;37162;41.724;13.346;2023-11-18T10:06:12;97202.69;;;20.88;72.55
51123;BME280;37162;41.724;13.346;2023-11-18T10:08:40;97207.69;;;20.97;72.58
51123;BME280;37162;41.724;13.346;2023-11-18T10:11:06;97200.16;;;20.99;72.57
51123;BME280;37162;41.724;13.346;2023-11-18T10:13:35;97213.75;;;21.04;72.62
51123;BME280;37162;41.724;13.346;2023-11-18T10:16:08;97220.84;;;21.10;72.47
51123;BME280;37162;41.724;13.346;2023-11-18T10:18:34;97221.16;;;21.13;72.43
51123;BME280;37162;41.724;13.346;2023-11-18T10:21:02;97218.78;;;21.17;72.02
51123;BME280;37162;41.724;13.346;2023-11-18T10:23:33;97220.16;;;21.19;71.95
51123;BME280;37162;41.724;13.346;2023-11-18T10:25:59;97216.16;;;21.22;72.07
51123;BME280;37162;41.724;13.346;2023-11-18T10:28:34;97207.81;;;21.24;71.87
51123;BME280;37162;41.724;13.346;2023-11-18T10:31:02;97208.34;;;21.26;71.92
51123;BME280;37162;41.724;13.346;2023-11-18T10:33:40;97212.47;;;21.28;71.88
51123;BME280;37162;41.724;13.346;2023-11-18T10:36:17;97206.78;;;21.30;71.61
51123;BME280;37162;41.724;13.346;2023-11-18T10:38:48;97204.72;;;21.32;71.58
51123;BME280;37162;41.724;13.346;2023-11-18T10:41:15;97201.75;;;21.33;71.81
51123;BME280;37162;41.724;13.346;2023-11-18T10:43:42;97203.38;;;21.34;71.62
51123;BME280;37162;41.724;13.346;2023-11-18T10:46:11;97206.66;;;21.36;71.19
51123;BME280;37162;41.724;13.346;2023-11-18T10:48:40;97203.09;;;21.36;71.48
51123;BME280;37162;41.724;13.346;2023-11-18T10:53:36;97198.56;;;21.36;71.47
51123;BME280;37162;41.724;13.346;2023-11-18T10:56:06;97218.66;;;21.46;71.05
51123;BME280;37162;41.724;13.346;2023-11-18T10:58:41;97207.84;;;21.46;71.30
51123;BME280;37162;41.724;13.346;2023-11-18T11:01:07;97208.97;;;21.50;71.11
51123;BME280;37162;41.724;13.346;2023-11-18T11:03:57;97204.16;;;21.52;70.58
51123;BME280;37162;41.724;13.346;2023-11-18T11:06:26;97202.00;;;21.54;70.32
51123;BME280;37162;41.724;13.346;2023-11-18T11:08:56;97189.56;;;21.53;70.37
51123;BME280;37162;41.724;13.346;2023-11-18T11:11:25;97208.81;;;21.56;70.13
51123;BME280;37162;41.724;13.346;2023-11-18T11:13:57;97189.56;;;21.53;70.32
51123;BME280;37162;41.724;13.346;2023-11-18T11:16:28;97172.13;;;21.43;70.10
51123;BME280;37162;41.724;13.346;2023-11-18T11:19:02;97183.13;;;21.59;69.65
51123;BME280;37162;41.724;13.346;2023-11-18T11:21:37;97181.81;;;21.61;69.63
51123;BME280;37162;41.724;13.346;2023-11-18T11:24:19;97176.41;;;21.61;69.69
51123;BME280;37162;41.724;13.346;2023-11-18T11:29:38;97182.31;;;21.58;63.94
51123;BME280;37162;41.724;13.346;2023-11-18T11:34:40;97174.34;;;21.47;63.12
51123;BME280;37162;41.724;13.346;2023-11-18T11:39:35;97175.91;;;21.42;64.42
51123;BME280;37162;41.724;13.346;2023-11-18T11:42:02;97181.38;;;21.48;64.99
51123;BME280;37162;41.724;13.346;2023-11-18T11:44:29;97170.19;;;21.39;65.19
51123;BME280;37162;41.724;13.346;2023-11-18T11:47:00;97178.13;;;21.46;65.08
51123;BME280;37162;41.724;13.346;2023-11-18T11:49:35;97165.66;;;21.44;65.30
51123;BME280;37162;41.724;13.346;2023-11-18T11:52:26;97167.22;;;21.40;64.92
51123;BME280;37162;41.724;13.346;2023-11-18T11:55:01;97171.25;;;21.38;65.14
51123;BME280;37162;41.724;13.346;2023-11-18T11:57:32;97162.72;;;21.29;65.31
51123;BME280;37162;41.724;13.346;2023-11-18T12:00:03;97172.41;;;21.25;65.17
51123;BME280;37162;41.724;13.346;2023-11-18T12:02:40;97194.84;;;21.26;65.28
51123;BME280;37162;41.724;13.346;2023-11-18T12:05:16;97189.13;;;21.22;65.38
51123;BME280;37162;41.724;13.346;2023-11-18T12:07:44;97180.63;;;21.13;65.76
51123;BME280;37162;41.724;13.346;2023-11-18T12:10:11;97188.16;;;21.11;65.90
51123;BME280;37162;41.724;13.346;2023-11-18T12:12:45;97188.09;;;21.06;65.82
51123;BME280;37162;41.724;13.346;2023-11-18T12:15:11;97184.03;;;21.04;66.27
51123;BME280;37162;41.724;13.346;2023-11-18T12:20:45;97175.44;;;20.90;66.57
51123;BME280;37162;41.724;13.346;2023-11-18T12:23:19;97181.00;;;20.83;66.92
51123;BME280;37162;41.724;13.346;2023-11-18T12:25:49;97183.63;;;20.78;66.88
51123;BME280;37162;41.724;13.346;2023-11-18T12:28:20;97174.91;;;20.71;66.92
51123;BME280;37162;41.724;13.346;2023-11-18T12:30:47;97167.22;;;20.63;66.52
51123;BME280;37162;41.724;13.346;2023-11-18T12:33:26;97169.56;;;20.59;65.81
51123;BME280;37162;41.724;13.346;2023-11-18T12:39:01;97170.56;;;20.53;69.53
51123;BME280;37162;41.724;13.346;2023-11-18T17:04:42;97315.75;;;19.12;77.80
51123;BME280;37162;41.724;13.346;2023-11-18T17:07:08;97307.91;;;19.10;78.60
51123;BME280;37162;41.724;13.346;2023-11-18T17:09:34;97313.84;;;19.12;78.47
51123;BME280;37162;41.724;13.346;2023-11-18T17:12:00;97299.34;;;19.13;78.36
51123;BME280;37162;41.724;13.346;2023-11-18T17:14:25;97309.91;;;19.15;78.57
51123;BME280;37162;41.724;13.346;2023-11-18T17:16:51;97311.28;;;19.18;78.70
51123;BME280;37162;41.724;13.346;2023-11-18T17:19:16;97318.31;;;19.19;78.80
51123;BME280;37162;41.724;13.346;2023-11-18T17:21:42;97309.41;;;19.18;78.77
51123;BME280;37162;41.724;13.346;2023-11-18T17:24:07;97314.91;;;19.23;78.58
51123;BME280;37162;41.724;13.346;2023-11-18T17:27:46;97296.28;;;19.22;77.82
51123;BME280;37162;41.724;13.346;2023-11-18T17:30:13;97307.75;;;19.29;77.80
51123;BME280;37162;41.724;13.346;2023-11-18T17:32:41;97311.75;;;19.26;77.64
51123;BME280;37162;41.724;13.346;2023-11-18T17:35:08;97309.44;;;19.30;77.54
51123;BME280;37162;41.724;13.346;2023-11-18T17:37:41;97325.72;;;19.35;78.00